Gurli — SLEG — position and weather

sailwx.info

Track history (hours):
 
Tides and Currents Weather Stations Pressure Air Temp Water Temp Dewpoint Dewpoint Depression Visibility Wind Speed Wind Dir Waves Ship Positions

Gurli

Last reported at 2015-May-06 03:31 UTC. Time now 2015-May-06 04:23 UTC.
Position N 59°20' E 018°05'.

Length 21 m.

Type: Passenger vessel. MMSI: 265687640.

Date/timePositionNaut miles runAvg speedWind from/ knotsBaromVisibWave heightAir tempDewpointWater temp
2015-May-06 03:31N 59°20' E 018°05'0 0.0
2015-May-06 02:28N 59°20' E 018°05'0 0.0
2015-May-06 01:31N 59°20' E 018°05'0 0.0
2015-May-06 00:28N 59°20' E 018°05'0 0.0
2015-May-05 23:28N 59°20' E 018°05'0 0.0
2015-May-05 22:28N 59°20' E 018°05'0 0.0
2015-May-05 21:31N 59°20' E 018°05'0 0.0
2015-May-05 20:28N 59°20' E 018°05'0 0.0
2015-May-05 19:33N 59°20' E 018°05'0 0.2
2015-May-05 18:33N 59°20' E 018°05'2 2.2
2015-May-05 17:30N 59°20' E 018°09'2 2.3
2015-May-05 16:33N 59°20' E 018°05'2 2.2
2015-May-05 15:34N 59°20' E 018°09'2 1.9
2015-May-05 14:33N 59°19' E 018°07'1 1.3
2015-May-05 13:33N 59°19' E 018°09'2 2.5
2015-May-05 12:33N 59°20' E 018°05'2 2.3
2015-May-05 11:30N 59°20' E 018°09'1 1.3
2015-May-05 10:32N 59°19' E 018°07'1 1.2
2015-May-05 09:33N 59°19' E 018°10'0 0.3
2015-May-05 08:28N 59°19' E 018°09'2 1.7
2015-May-05 07:33N 59°19' E 018°07'2 2.0
2015-May-05 06:30N 59°21' E 018°09'2 2.3
2015-May-05 05:33N 59°19' E 018°06'1 1.0
2015-May-05 04:33N 59°19' E 018°08'2 1.8
2015-May-05 03:33N 59°20' E 018°05'0 0.0
2015-May-05 02:30N 59°20' E 018°05'0 0.0
2015-May-05 01:30N 59°20' E 018°05'0 0.0
2015-May-05 00:33N 59°20' E 018°05'0 0.0
2015-May-04 23:30N 59°20' E 018°05'0 0.0
2015-May-04 22:33N 59°20' E 018°05'0 0.0
2015-May-04 21:33N 59°20' E 018°05'0 0.0
2015-May-04 20:33N 59°20' E 018°05'0 0.0
2015-May-04 19:33N 59°20' E 018°05'1 0.7
2015-May-04 18:33N 59°19' E 018°06'2 1.8
2015-May-04 17:28N 59°19' E 018°10'2 2.5
2015-May-04 16:33N 59°20' E 018°05'2 2.2
2015-May-04 15:33N 59°21' E 018°09'2 2.1
2015-May-04 14:33N 59°19' E 018°07'1 1.3
2015-May-04 13:29N 59°19' E 018°09'2 2.7
2015-May-04 12:33N 59°20' E 018°05'2 2.4
2015-May-04 11:32N 59°20' E 018°09'2 1.8
2015-May-04 10:33N 59°19' E 018°07'1 0.8
2015-May-04 09:33N 59°19' E 018°09'0 0.4
2015-May-04 08:27N 59°19' E 018°09'2 1.7
2015-May-04 07:33N 59°19' E 018°07'2 2.0
2015-May-04 06:29N 59°21' E 018°09'2 2.4
2015-May-04 05:33N 59°19' E 018°06'1 1.1
2015-May-04 04:33N 59°19' E 018°08'2 1.8
2015-May-04 03:33N 59°20' E 018°05'0 0.0
2015-May-04 02:33N 59°20' E 018°05'0 0.0
2015-May-04 01:33N 59°20' E 018°05'0 0.0
2015-May-04 00:33N 59°20' E 018°05'0 0.0
2015-May-03 23:33N 59°20' E 018°05'0 0.0
2015-May-03 22:30N 59°20' E 018°05'0 0.0
2015-May-03 21:33N 59°20' E 018°05'0 0.0
2015-May-03 20:30N 59°20' E 018°05'0 0.0
2015-May-03 19:24N 59°20' E 018°05'0 0.0
2015-May-03 18:33N 59°20' E 018°05'0 0.0
2015-May-03 17:33N 59°20' E 018°05'0 0.0
2015-May-03 16:33N 59°20' E 018°05'1 0.5
2015-May-03 15:33N 59°20' E 018°05'2 2.0
2015-May-03 14:33N 59°19' E 018°09'1 0.9
2015-May-03 13:33N 59°19' E 018°08'0 0.2
2015-May-03 12:33N 59°19' E 018°07'2 1.6
2015-May-03 11:33N 59°20' E 018°05'2 2.4
2015-May-03 10:32N 59°20' E 018°09'2 2.0
2015-May-03 09:33N 59°19' E 018°06'2 1.7
2015-May-03 08:32N 59°19' E 018°09'2 2.4
2015-May-03 07:33N 59°20' E 018°05'0 0.0
2015-May-03 06:33N 59°20' E 018°05'0 0.0
2015-May-03 05:27N 59°20' E 018°05'0 0.0
2015-May-03 04:33N 59°20' E 018°05'0 0.0
2015-May-03 03:31N 59°20' E 018°05'0 0.0
2015-May-03 02:31N 59°20' E 018°05'0 0.0
2015-May-03 01:32N 59°20' E 018°05'0 0.0
2015-May-03 00:28N 59°20' E 018°05'0 0.0
2015-May-02 23:31N 59°20' E 018°05'0 0.0
2015-May-02 22:31N 59°20' E 018°05'0 0.0
2015-May-02 21:31N 59°20' E 018°05'0 0.0
2015-May-02 20:31N 59°20' E 018°05'0 0.0
2015-May-02 19:31N 59°20' E 018°05'0 0.0
2015-May-02 18:31N 59°20' E 018°05'0 0.0
2015-May-02 17:31N 59°20' E 018°05'0 0.0
2015-May-02 16:31N 59°20' E 018°05'1 0.7
2015-May-02 15:33N 59°19' E 018°06'2 1.6
2015-May-02 14:32N 59°19' E 018°09'1 1.2
2015-May-02 13:33N 59°19' E 018°07'0 0.4
2015-May-02 12:33N 59°19' E 018°07'2 1.7
2015-May-02 11:33N 59°20' E 018°05'2 2.4
2015-May-02 10:32N 59°20' E 018°09'2 2.1
2015-May-02 09:33N 59°19' E 018°06'2 1.9
2015-May-02 08:31N 59°19' E 018°09'3 2.5
2015-May-02 07:31N 59°20' E 018°05'0 0.0
2015-May-02 06:31N 59°20' E 018°05'0 0.0
2015-May-02 05:31N 59°20' E 018°05'0 0.0
2015-May-02 04:31N 59°20' E 018°05'0 0.0
2015-May-02 03:31N 59°20' E 018°05'0 0.0
2015-May-02 02:31N 59°20' E 018°05'0 0.0
2015-May-02 01:31N 59°20' E 018°05'0 0.0
2015-May-02 00:31N 59°20' E 018°05'0 0.0
2015-May-01 23:28N 59°20' E 018°05'0 0.0
2015-May-01 22:31N 59°20' E 018°05'0 0.0
2015-May-01 21:31N 59°20' E 018°05'0 0.0
2015-May-01 20:31N 59°20' E 018°05'0 0.0
2015-May-01 19:31N 59°20' E 018°05'0 0.0
2015-May-01 18:31N 59°20' E 018°05'0 0.0
2015-May-01 17:31N 59°20' E 018°05'0 0.0
2015-May-01 16:31N 59°20' E 018°05'0 0.5
2015-May-01 15:33N 59°20' E 018°05'2 2.2
2015-May-01 14:33N 59°19' E 018°10'2 1.5
2015-May-01 13:33N 59°19' E 018°07'0 0.4
2015-May-01 12:33N 59°19' E 018°07'2 1.7
2015-May-01 11:33N 59°20' E 018°05'2 2.4
2015-May-01 10:33N 59°21' E 018°09'2 2.1
2015-May-01 09:33N 59°19' E 018°06'2 1.9
2015-May-01 08:32N 59°19' E 018°09'2 1.7
2015-May-01 07:30N 59°19' E 018°06'1 1.5
2015-May-01 06:33N 59°20' E 018°05'0 0.0
2015-May-01 05:33N 59°20' E 018°05'0 0.0
2015-May-01 04:33N 59°20' E 018°05'0 0.0
2015-May-01 03:33N 59°20' E 018°05'0 0.0
2015-May-01 02:33N 59°20' E 018°05'0 0.0
2015-May-01 01:33N 59°20' E 018°05'0 0.0
2015-May-01 00:33N 59°20' E 018°05'0 0.0
2015-Apr-30 23:33N 59°20' E 018°05'0 0.0
2015-Apr-30 22:33N 59°20' E 018°05'0 0.0
2015-Apr-30 21:33N 59°20' E 018°05'0 0.0
2015-Apr-30 20:33N 59°20' E 018°05'0 0.0
2015-Apr-30 19:33N 59°20' E 018°05'1 0.7
2015-Apr-30 18:33N 59°19' E 018°06'2 2.1
2015-Apr-30 17:33N 59°20' E 018°09'2 2.0
2015-Apr-30 16:33N 59°20' E 018°06'2 2.1
2015-Apr-30 15:33N 59°21' E 018°09'2 2.0
2015-Apr-30 14:33N 59°19' E 018°07'1 1.3
2015-Apr-30 13:32N 59°19' E 018°09'2 2.5
2015-Apr-30 12:33N 59°20' E 018°05'2 2.4
2015-Apr-30 11:33N 59°21' E 018°09'2 2.1
2015-Apr-30 10:33N 59°19' E 018°07'1 1.1
2015-Apr-30 09:30N 59°19' E 018°09'0 0.4
2015-Apr-30 08:27N 59°19' E 018°10'1 1.7
2015-Apr-30 07:33N 59°19' E 018°07'2 1.9
2015-Apr-30 06:30N 59°20' E 018°09'2 2.3
2015-Apr-30 05:33N 59°19' E 018°06'1 1.1
2015-Apr-30 04:33N 59°19' E 018°08'2 1.8
2015-Apr-30 03:32N 59°20' E 018°05'0 0.0
2015-Apr-30 02:32N 59°20' E 018°05'0 0.0
2015-Apr-30 01:32N 59°20' E 018°05'0 0.0
2015-Apr-30 00:32N 59°20' E 018°05'0 0.0
2015-Apr-29 23:32N 59°20' E 018°05'0 0.0
2015-Apr-29 22:29N 59°20' E 018°05'0 0.0
2015-Apr-29 21:32N 59°20' E 018°05'0 0.0
2015-Apr-29 20:32N 59°20' E 018°05'0 0.0
2015-Apr-29 19:32N 59°20' E 018°05'0 0.1
2015-Apr-29 18:33N 59°20' E 018°05'2 2.4
2015-Apr-29 17:33N 59°20' E 018°09'2 2.1
2015-Apr-29 16:33N 59°20' E 018°05'2 2.2
2015-Apr-29 15:33N 59°21' E 018°09'2 1.7
2015-Apr-29 14:33N 59°19' E 018°07'1 1.0
2015-Apr-29 13:33N 59°19' E 018°09'3 2.5
2015-Apr-29 12:33N 59°20' E 018°05'2 2.4
2015-Apr-29 11:33N 59°21' E 018°09'2 2.1
2015-Apr-29 10:33N 59°19' E 018°07'1 1.4
2015-Apr-29 09:33N 59°19' E 018°09'0 0.0
2015-Apr-29 08:33N 59°19' E 018°09'1 1.4
2015-Apr-29 07:33N 59°19' E 018°07'2 2.0
2015-Apr-29 06:29N 59°21' E 018°09'2 2.4
2015-Apr-29 05:33N 59°19' E 018°06'1 0.9
2015-Apr-29 04:33N 59°19' E 018°07'2 1.6
2015-Apr-29 03:31N 59°20' E 018°05'0 0.0
2015-Apr-29 02:31N 59°20' E 018°05'0 0.0
2015-Apr-29 01:31N 59°20' E 018°05'0 0.0
2015-Apr-29 00:31N 59°20' E 018°05'0 0.0
2015-Apr-28 23:31N 59°20' E 018°05'0 0.0
2015-Apr-28 22:31N 59°20' E 018°05'0 0.0
2015-Apr-28 21:31N 59°20' E 018°05'0 0.0
2015-Apr-28 20:31N 59°20' E 018°05'0 0.0
2015-Apr-28 19:31N 59°20' E 018°05'0 0.2
2015-Apr-28 18:33N 59°20' E 018°05'2 2.2
2015-Apr-28 17:30N 59°20' E 018°09'2 2.2
2015-Apr-28 16:33N 59°19' E 018°06'2 2.2
2015-Apr-28 15:33N 59°20' E 018°09'2 1.8
2015-Apr-28 14:33N 59°19' E 018°07'1 0.9
2015-Apr-28 13:31N 59°19' E 018°09'2 2.5
2015-Apr-28 12:33N 59°20' E 018°05'2 2.4
2015-Apr-28 11:33N 59°21' E 018°09'2 2.1
2015-Apr-28 10:33N 59°19' E 018°07'1 1.3
2015-Apr-28 09:31N 59°19' E 018°09'0 0.1
2015-Apr-28 08:33N 59°19' E 018°09'1 1.2
2015-Apr-28 07:33N 59°19' E 018°07'2 1.9
2015-Apr-28 06:28N 59°21' E 018°09'2 2.4
2015-Apr-28 05:33N 59°19' E 018°06'1 1.0
2015-Apr-28 04:32N 59°19' E 018°08'2 1.6
2015-Apr-28 03:24N 59°20' E 018°05'0 0.0
2015-Apr-28 02:33N 59°20' E 018°05'0 0.0
2015-Apr-28 01:33N 59°20' E 018°05'0 0.0
2015-Apr-28 00:33N 59°20' E 018°05'0 0.0
2015-Apr-27 23:30N 59°20' E 018°05'0 0.0
2015-Apr-27 22:33N 59°20' E 018°05'0 0.0
2015-Apr-27 21:33N 59°20' E 018°05'0 0.0
2015-Apr-27 20:33N 59°20' E 018°05'0 0.0
2015-Apr-27 19:33N 59°20' E 018°05'0 0.4
2015-Apr-27 18:33N 59°20' E 018°05'2 2.1
2015-Apr-27 17:32N 59°20' E 018°09'2 2.1
2015-Apr-27 16:33N 59°19' E 018°06'2 2.1
2015-Apr-27 15:33N 59°20' E 018°09'2 1.6
2015-Apr-27 14:33N 59°19' E 018°07'1 0.9
2015-Apr-27 13:32N 59°19' E 018°09'2 2.1
2015-Apr-27 12:34N 59°20' E 018°05'2 2.1
2015-Apr-27 11:33N 59°20' E 018°09'2 1.9
2015-Apr-27 10:33N 59°19' E 018°06'2 1.6
2015-Apr-27 09:33N 59°19' E 018°10'0 0.1
2015-Apr-27 08:33N 59°19' E 018°09'1 1.4
2015-Apr-27 07:33N 59°19' E 018°07'2 1.9
2015-Apr-27 06:29N 59°21' E 018°09'2 2.4
2015-Apr-27 05:33N 59°19' E 018°06'1 1.0
2015-Apr-27 04:33N 59°19' E 018°08'2 1.8
2015-Apr-27 03:32N 59°20' E 018°05'0 0.0
2015-Apr-27 02:32N 59°20' E 018°05'0 0.0
2015-Apr-27 01:32N 59°20' E 018°05'0 0.0
2015-Apr-27 00:32N 59°20' E 018°05'0 0.0
2015-Apr-26 23:32N 59°20' E 018°05'0 0.0
2015-Apr-26 22:32N 59°20' E 018°05'0 0.0
2015-Apr-26 21:32N 59°20' E 018°05'0 0.0
2015-Apr-26 20:32N 59°20' E 018°05'0 0.0
2015-Apr-26 19:32N 59°20' E 018°05'0 0.0
2015-Apr-26 18:32N 59°20' E 018°05'0 0.0
2015-Apr-26 17:32N 59°20' E 018°05'0 0.0
2015-Apr-26 16:32N 59°20' E 018°05'1 0.7
2015-Apr-26 15:33N 59°19' E 018°06'2 1.9
2015-Apr-26 14:32N 59°19' E 018°09'1 1.3
2015-Apr-26 13:33N 59°19' E 018°07'0 0.3
2015-Apr-26 12:33N 59°19' E 018°07'2 1.7
2015-Apr-26 11:33N 59°20' E 018°05'2 2.4
2015-Apr-26 10:33N 59°21' E 018°09'2 2.1
2015-Apr-26 09:33N 59°19' E 018°06'2 2.0
2015-Apr-26 08:33N 59°19' E 018°10'3 2.6
2015-Apr-26 07:33N 59°20' E 018°05'0 0.0
2015-Apr-26 06:33N 59°20' E 018°05'0 0.0
2015-Apr-26 05:33N 59°20' E 018°05'0 0.0
2015-Apr-26 04:30N 59°20' E 018°05'0 0.0
2015-Apr-26 03:33N 59°20' E 018°05'  
Track history (hours):
 
Tides and Currents Weather Stations Pressure Air Temp Water Temp Dewpoint Dewpoint Depression Visibility Wind Speed Wind Dir Waves Ship Positions

Gurli

Last reported at 2015-May-06 03:31 UTC. Time now 2015-May-06 04:23 UTC.
Position N 59°20' E 018°05'.

Length 21 m.

Type: Passenger vessel. MMSI: 265687640.

Date/timePositionNaut miles runAvg speedWind from/ knotsBaromVisibWave heightAir tempDewpointWater temp
2015-May-06 03:31N 59°20' E 018°05'0 0.0
2015-May-06 02:28N 59°20' E 018°05'0 0.0
2015-May-06 01:31N 59°20' E 018°05'0 0.0
2015-May-06 00:28N 59°20' E 018°05'0 0.0
2015-May-05 23:28N 59°20' E 018°05'0 0.0
2015-May-05 22:28N 59°20' E 018°05'0 0.0
2015-May-05 21:31N 59°20' E 018°05'0 0.0
2015-May-05 20:28N 59°20' E 018°05'0 0.0
2015-May-05 19:33N 59°20' E 018°05'0 0.2
2015-May-05 18:33N 59°20' E 018°05'2 2.2
2015-May-05 17:30N 59°20' E 018°09'2 2.3
2015-May-05 16:33N 59°20' E 018°05'2 2.2
2015-May-05 15:34N 59°20' E 018°09'2 1.9
2015-May-05 14:33N 59°19' E 018°07'1 1.3
2015-May-05 13:33N 59°19' E 018°09'2 2.5
2015-May-05 12:33N 59°20' E 018°05'2 2.3
2015-May-05 11:30N 59°20' E 018°09'1 1.3
2015-May-05 10:32N 59°19' E 018°07'1 1.2
2015-May-05 09:33N 59°19' E 018°10'0 0.3
2015-May-05 08:28N 59°19' E 018°09'2 1.7
2015-May-05 07:33N 59°19' E 018°07'2 2.0
2015-May-05 06:30N 59°21' E 018°09'2 2.3
2015-May-05 05:33N 59°19' E 018°06'1 1.0
2015-May-05 04:33N 59°19' E 018°08'2 1.8
2015-May-05 03:33N 59°20' E 018°05'0 0.0
2015-May-05 02:30N 59°20' E 018°05'0 0.0
2015-May-05 01:30N 59°20' E 018°05'0 0.0
2015-May-05 00:33N 59°20' E 018°05'0 0.0
2015-May-04 23:30N 59°20' E 018°05'0 0.0
2015-May-04 22:33N 59°20' E 018°05'0 0.0
2015-May-04 21:33N 59°20' E 018°05'0 0.0
2015-May-04 20:33N 59°20' E 018°05'0 0.0
2015-May-04 19:33N 59°20' E 018°05'1 0.7
2015-May-04 18:33N 59°19' E 018°06'2 1.8
2015-May-04 17:28N 59°19' E 018°10'2 2.5
2015-May-04 16:33N 59°20' E 018°05'2 2.2
2015-May-04 15:33N 59°21' E 018°09'2 2.1
2015-May-04 14:33N 59°19' E 018°07'1 1.3
2015-May-04 13:29N 59°19' E 018°09'2 2.7
2015-May-04 12:33N 59°20' E 018°05'2 2.4
2015-May-04 11:32N 59°20' E 018°09'2 1.8
2015-May-04 10:33N 59°19' E 018°07'1 0.8
2015-May-04 09:33N 59°19' E 018°09'0 0.4
2015-May-04 08:27N 59°19' E 018°09'2 1.7
2015-May-04 07:33N 59°19' E 018°07'2 2.0
2015-May-04 06:29N 59°21' E 018°09'2 2.4
2015-May-04 05:33N 59°19' E 018°06'1 1.1
2015-May-04 04:33N 59°19' E 018°08'2 1.8
2015-May-04 03:33N 59°20' E 018°05'0 0.0
2015-May-04 02:33N 59°20' E 018°05'0 0.0
2015-May-04 01:33N 59°20' E 018°05'0 0.0
2015-May-04 00:33N 59°20' E 018°05'0 0.0
2015-May-03 23:33N 59°20' E 018°05'0 0.0
2015-May-03 22:30N 59°20' E 018°05'0 0.0
2015-May-03 21:33N 59°20' E 018°05'0 0.0
2015-May-03 20:30N 59°20' E 018°05'0 0.0
2015-May-03 19:24N 59°20' E 018°05'0 0.0
2015-May-03 18:33N 59°20' E 018°05'0 0.0
2015-May-03 17:33N 59°20' E 018°05'0 0.0
2015-May-03 16:33N 59°20' E 018°05'1 0.5
2015-May-03 15:33N 59°20' E 018°05'2 2.0
2015-May-03 14:33N 59°19' E 018°09'1 0.9
2015-May-03 13:33N 59°19' E 018°08'0 0.2
2015-May-03 12:33N 59°19' E 018°07'2 1.6
2015-May-03 11:33N 59°20' E 018°05'2 2.4
2015-May-03 10:32N 59°20' E 018°09'2 2.0
2015-May-03 09:33N 59°19' E 018°06'2 1.7
2015-May-03 08:32N 59°19' E 018°09'2 2.4
2015-May-03 07:33N 59°20' E 018°05'0 0.0
2015-May-03 06:33N 59°20' E 018°05'0 0.0
2015-May-03 05:27N 59°20' E 018°05'0 0.0
2015-May-03 04:33N 59°20' E 018°05'0 0.0
2015-May-03 03:31N 59°20' E 018°05'0 0.0
2015-May-03 02:31N 59°20' E 018°05'0 0.0
2015-May-03 01:32N 59°20' E 018°05'0 0.0
2015-May-03 00:28N 59°20' E 018°05'0 0.0
2015-May-02 23:31N 59°20' E 018°05'0 0.0
2015-May-02 22:31N 59°20' E 018°05'0 0.0
2015-May-02 21:31N 59°20' E 018°05'0 0.0
2015-May-02 20:31N 59°20' E 018°05'0 0.0
2015-May-02 19:31N 59°20' E 018°05'0 0.0
2015-May-02 18:31N 59°20' E 018°05'0 0.0
2015-May-02 17:31N 59°20' E 018°05'0 0.0
2015-May-02 16:31N 59°20' E 018°05'1 0.7
2015-May-02 15:33N 59°19' E 018°06'2 1.6
2015-May-02 14:32N 59°19' E 018°09'1 1.2
2015-May-02 13:33N 59°19' E 018°07'0 0.4
2015-May-02 12:33N 59°19' E 018°07'2 1.7
2015-May-02 11:33N 59°20' E 018°05'2 2.4
2015-May-02 10:32N 59°20' E 018°09'2 2.1
2015-May-02 09:33N 59°19' E 018°06'2 1.9
2015-May-02 08:31N 59°19' E 018°09'3 2.5
2015-May-02 07:31N 59°20' E 018°05'0 0.0
2015-May-02 06:31N 59°20' E 018°05'0 0.0
2015-May-02 05:31N 59°20' E 018°05'0 0.0
2015-May-02 04:31N 59°20' E 018°05'0 0.0
2015-May-02 03:31N 59°20' E 018°05'0 0.0
2015-May-02 02:31N 59°20' E 018°05'0 0.0
2015-May-02 01:31N 59°20' E 018°05'0 0.0
2015-May-02 00:31N 59°20' E 018°05'0 0.0
2015-May-01 23:28N 59°20' E 018°05'0 0.0
2015-May-01 22:31N 59°20' E 018°05'0 0.0
2015-May-01 21:31N 59°20' E 018°05'0 0.0
2015-May-01 20:31N 59°20' E 018°05'0 0.0
2015-May-01 19:31N 59°20' E 018°05'0 0.0
2015-May-01 18:31N 59°20' E 018°05'0 0.0
2015-May-01 17:31N 59°20' E 018°05'0 0.0
2015-May-01 16:31N 59°20' E 018°05'0 0.5
2015-May-01 15:33N 59°20' E 018°05'2 2.2
2015-May-01 14:33N 59°19' E 018°10'2 1.5
2015-May-01 13:33N 59°19' E 018°07'0 0.4
2015-May-01 12:33N 59°19' E 018°07'2 1.7
2015-May-01 11:33N 59°20' E 018°05'2 2.4
2015-May-01 10:33N 59°21' E 018°09'2 2.1
2015-May-01 09:33N 59°19' E 018°06'2 1.9
2015-May-01 08:32N 59°19' E 018°09'2 1.7
2015-May-01 07:30N 59°19' E 018°06'1 1.5
2015-May-01 06:33N 59°20' E 018°05'0 0.0
2015-May-01 05:33N 59°20' E 018°05'0 0.0
2015-May-01 04:33N 59°20' E 018°05'0 0.0
2015-May-01 03:33N 59°20' E 018°05'0 0.0
2015-May-01 02:33N 59°20' E 018°05'0 0.0
2015-May-01 01:33N 59°20' E 018°05'0 0.0
2015-May-01 00:33N 59°20' E 018°05'0 0.0
2015-Apr-30 23:33N 59°20' E 018°05'0 0.0
2015-Apr-30 22:33N 59°20' E 018°05'0 0.0
2015-Apr-30 21:33N 59°20' E 018°05'0 0.0
2015-Apr-30 20:33N 59°20' E 018°05'0 0.0
2015-Apr-30 19:33N 59°20' E 018°05'1 0.7
2015-Apr-30 18:33N 59°19' E 018°06'2 2.1
2015-Apr-30 17:33N 59°20' E 018°09'2 2.0
2015-Apr-30 16:33N 59°20' E 018°06'2 2.1
2015-Apr-30 15:33N 59°21' E 018°09'2 2.0
2015-Apr-30 14:33N 59°19' E 018°07'1 1.3
2015-Apr-30 13:32N 59°19' E 018°09'2 2.5
2015-Apr-30 12:33N 59°20' E 018°05'2 2.4
2015-Apr-30 11:33N 59°21' E 018°09'2 2.1
2015-Apr-30 10:33N 59°19' E 018°07'1 1.1
2015-Apr-30 09:30N 59°19' E 018°09'0 0.4
2015-Apr-30 08:27N 59°19' E 018°10'1 1.7
2015-Apr-30 07:33N 59°19' E 018°07'2 1.9
2015-Apr-30 06:30N 59°20' E 018°09'2 2.3
2015-Apr-30 05:33N 59°19' E 018°06'1 1.1
2015-Apr-30 04:33N 59°19' E 018°08'2 1.8
2015-Apr-30 03:32N 59°20' E 018°05'0 0.0
2015-Apr-30 02:32N 59°20' E 018°05'0 0.0
2015-Apr-30 01:32N 59°20' E 018°05'0 0.0
2015-Apr-30 00:32N 59°20' E 018°05'0 0.0
2015-Apr-29 23:32N 59°20' E 018°05'0 0.0
2015-Apr-29 22:29N 59°20' E 018°05'0 0.0
2015-Apr-29 21:32N 59°20' E 018°05'0 0.0
2015-Apr-29 20:32N 59°20' E 018°05'0 0.0
2015-Apr-29 19:32N 59°20' E 018°05'0 0.1
2015-Apr-29 18:33N 59°20' E 018°05'2 2.4
2015-Apr-29 17:33N 59°20' E 018°09'2 2.1
2015-Apr-29 16:33N 59°20' E 018°05'2 2.2
2015-Apr-29 15:33N 59°21' E 018°09'2 1.7
2015-Apr-29 14:33N 59°19' E 018°07'1 1.0
2015-Apr-29 13:33N 59°19' E 018°09'3 2.5
2015-Apr-29 12:33N 59°20' E 018°05'2 2.4
2015-Apr-29 11:33N 59°21' E 018°09'2 2.1
2015-Apr-29 10:33N 59°19' E 018°07'1 1.4
2015-Apr-29 09:33N 59°19' E 018°09'0 0.0
2015-Apr-29 08:33N 59°19' E 018°09'1 1.4
2015-Apr-29 07:33N 59°19' E 018°07'2 2.0
2015-Apr-29 06:29N 59°21' E 018°09'2 2.4
2015-Apr-29 05:33N 59°19' E 018°06'1 0.9
2015-Apr-29 04:33N 59°19' E 018°07'2 1.6
2015-Apr-29 03:31N 59°20' E 018°05'0 0.0
2015-Apr-29 02:31N 59°20' E 018°05'0 0.0
2015-Apr-29 01:31N 59°20' E 018°05'0 0.0
2015-Apr-29 00:31N 59°20' E 018°05'0 0.0
2015-Apr-28 23:31N 59°20' E 018°05'0 0.0
2015-Apr-28 22:31N 59°20' E 018°05'0 0.0
2015-Apr-28 21:31N 59°20' E 018°05'0 0.0
2015-Apr-28 20:31N 59°20' E 018°05'0 0.0
2015-Apr-28 19:31N 59°20' E 018°05'0 0.2
2015-Apr-28 18:33N 59°20' E 018°05'2 2.2
2015-Apr-28 17:30N 59°20' E 018°09'2 2.2
2015-Apr-28 16:33N 59°19' E 018°06'2 2.2
2015-Apr-28 15:33N 59°20' E 018°09'2 1.8
2015-Apr-28 14:33N 59°19' E 018°07'1 0.9
2015-Apr-28 13:31N 59°19' E 018°09'2 2.5
2015-Apr-28 12:33N 59°20' E 018°05'2 2.4
2015-Apr-28 11:33N 59°21' E 018°09'2 2.1
2015-Apr-28 10:33N 59°19' E 018°07'1 1.3
2015-Apr-28 09:31N 59°19' E 018°09'0 0.1
2015-Apr-28 08:33N 59°19' E 018°09'1 1.2
2015-Apr-28 07:33N 59°19' E 018°07'2 1.9
2015-Apr-28 06:28N 59°21' E 018°09'2 2.4
2015-Apr-28 05:33N 59°19' E 018°06'1 1.0
2015-Apr-28 04:32N 59°19' E 018°08'2 1.6
2015-Apr-28 03:24N 59°20' E 018°05'0 0.0
2015-Apr-28 02:33N 59°20' E 018°05'0 0.0
2015-Apr-28 01:33N 59°20' E 018°05'0 0.0
2015-Apr-28 00:33N 59°20' E 018°05'0 0.0
2015-Apr-27 23:30N 59°20' E 018°05'0 0.0
2015-Apr-27 22:33N 59°20' E 018°05'0 0.0
2015-Apr-27 21:33N 59°20' E 018°05'0 0.0
2015-Apr-27 20:33N 59°20' E 018°05'0 0.0
2015-Apr-27 19:33N 59°20' E 018°05'0 0.4
2015-Apr-27 18:33N 59°20' E 018°05'2 2.1
2015-Apr-27 17:32N 59°20' E 018°09'2 2.1
2015-Apr-27 16:33N 59°19' E 018°06'2 2.1
2015-Apr-27 15:33N 59°20' E 018°09'2 1.6
2015-Apr-27 14:33N 59°19' E 018°07'1 0.9
2015-Apr-27 13:32N 59°19' E 018°09'2 2.1
2015-Apr-27 12:34N 59°20' E 018°05'2 2.1
2015-Apr-27 11:33N 59°20' E 018°09'2 1.9
2015-Apr-27 10:33N 59°19' E 018°06'2 1.6
2015-Apr-27 09:33N 59°19' E 018°10'0 0.1
2015-Apr-27 08:33N 59°19' E 018°09'1 1.4
2015-Apr-27 07:33N 59°19' E 018°07'2 1.9
2015-Apr-27 06:29N 59°21' E 018°09'2 2.4
2015-Apr-27 05:33N 59°19' E 018°06'1 1.0
2015-Apr-27 04:33N 59°19' E 018°08'2 1.8
2015-Apr-27 03:32N 59°20' E 018°05'0 0.0
2015-Apr-27 02:32N 59°20' E 018°05'0 0.0
2015-Apr-27 01:32N 59°20' E 018°05'0 0.0
2015-Apr-27 00:32N 59°20' E 018°05'0 0.0
2015-Apr-26 23:32N 59°20' E 018°05'0 0.0
2015-Apr-26 22:32N 59°20' E 018°05'0 0.0
2015-Apr-26 21:32N 59°20' E 018°05'0 0.0
2015-Apr-26 20:32N 59°20' E 018°05'0 0.0
2015-Apr-26 19:32N 59°20' E 018°05'0 0.0
2015-Apr-26 18:32N 59°20' E 018°05'0 0.0
2015-Apr-26 17:32N 59°20' E 018°05'0 0.0
2015-Apr-26 16:32N 59°20' E 018°05'1 0.7
2015-Apr-26 15:33N 59°19' E 018°06'2 1.9
2015-Apr-26 14:32N 59°19' E 018°09'1 1.3
2015-Apr-26 13:33N 59°19' E 018°07'0 0.3
2015-Apr-26 12:33N 59°19' E 018°07'2 1.7
2015-Apr-26 11:33N 59°20' E 018°05'2 2.4
2015-Apr-26 10:33N 59°21' E 018°09'2 2.1
2015-Apr-26 09:33N 59°19' E 018°06'2 2.0
2015-Apr-26 08:33N 59°19' E 018°10'3 2.6
2015-Apr-26 07:33N 59°20' E 018°05'0 0.0
2015-Apr-26 06:33N 59°20' E 018°05'0 0.0
2015-Apr-26 05:33N 59°20' E 018°05'0 0.0
2015-Apr-26 04:30N 59°20' E 018°05'0 0.0
2015-Apr-26 03:33N 59°20' E 018°05'  

Dump ship's entire track history